createdAt,value
2022-10-02T00:02:27.177Z,98165.78
2022-10-02T00:04:53.339Z,98161.22
2022-10-02T00:07:00.788Z,98169.75
2022-10-02T00:09:04.941Z,98172.19
2022-10-02T00:11:44.192Z,98172.94
2022-10-02T00:13:51.494Z,98165.00
2022-10-02T00:15:55.832Z,98161.38
2022-10-02T00:18:31.893Z,98177.69
2022-10-02T00:20:45.082Z,98167.28
2022-10-02T00:22:58.708Z,98174.09
2022-10-02T00:25:00.880Z,98169.63
2022-10-02T00:27:43.825Z,98172.13
2022-10-02T00:29:52.988Z,98168.03
2022-10-02T00:32:21.098Z,98178.38
2022-10-02T00:34:32.435Z,98177.44
2022-10-02T00:37:06.192Z,98173.94
2022-10-02T00:39:37.448Z,98174.81
2022-10-02T00:41:54.869Z,98179.34
2022-10-02T00:44:14.872Z,98176.00
2022-10-02T00:46:32.762Z,98164.19
2022-10-02T00:48:34.945Z,98172.78
2022-10-02T00:51:06.812Z,98162.38
2022-10-02T00:53:41.278Z,98172.00
2022-10-02T00:56:05.219Z,98176.41
2022-10-02T00:58:36.069Z,98176.28
2022-10-02T01:00:40.909Z,98177.31
2022-10-02T01:02:58.183Z,98171.91
2022-10-02T01:05:04.048Z,98165.97
2022-10-02T01:07:11.867Z,98178.25
2022-10-02T01:09:14.245Z,98174.94
2022-10-02T01:11:16.394Z,98176.00
2022-10-02T01:13:18.722Z,98176.34
2022-10-02T01:15:23.543Z,98179.16
2022-10-02T01:17:32.219Z,98182.03
2022-10-02T01:19:41.614Z,98172.66
2022-10-02T01:21:51.272Z,98171.47
2022-10-02T01:24:03.232Z,98178.53
2022-10-02T01:26:06.414Z,98186.69
2022-10-02T01:28:08.946Z,98184.47
2022-10-02T01:30:15.613Z,98185.03
2022-10-02T01:32:20.312Z,98186.00
2022-10-02T01:34:24.243Z,98195.91
2022-10-02T01:36:27.225Z,98181.56
2022-10-02T01:38:30.441Z,98200.84
2022-10-02T01:40:35.065Z,98195.81
2022-10-02T01:42:39.146Z,98193.28
2022-10-02T01:44:42.254Z,98191.75
2022-10-02T01:47:03.591Z,98190.13
2022-10-02T01:49:37.518Z,98198.16
2022-10-02T01:51:57.186Z,98198.34
2022-10-02T01:54:12.739Z,98196.81
2022-10-02T01:56:44.607Z,98204.56
2022-10-02T01:58:55.500Z,98205.56
2022-10-02T02:01:05.398Z,98203.97
2022-10-02T02:03:12.891Z,98204.16
2022-10-02T02:05:38.527Z,98210.22
2022-10-02T02:08:03.891Z,98205.91
2022-10-02T02:10:11.847Z,98202.31
2022-10-02T02:12:43.436Z,98209.00
2022-10-02T02:14:51.450Z,98204.59
2022-10-02T02:17:10.978Z,98199.97
2022-10-02T02:19:28.459Z,98199.06
2022-10-02T02:21:35.305Z,98185.88
2022-10-02T02:23:39.903Z,98200.41
2022-10-02T02:25:46.188Z,98201.16
2022-10-02T02:27:53.943Z,98195.84
2022-10-02T02:30:02.973Z,98193.28
2022-10-02T02:32:10.196Z,98200.78
2022-10-02T02:34:17.069Z,98161.28
2022-10-02T02:36:24.522Z,98189.41
2022-10-02T02:38:32.332Z,98199.66
2022-10-02T02:40:39.709Z,98202.22
2022-10-02T02:42:48.745Z,98193.56
2022-10-02T02:45:00.426Z,98204.78
2022-10-02T02:47:11.274Z,98196.91
2022-10-02T02:49:14.111Z,98196.97
2022-10-02T02:51:31.758Z,98202.16
2022-10-02T02:53:38.535Z,98202.16
2022-10-02T02:56:00.616Z,98184.03
2022-10-02T02:58:11.002Z,98187.38
2022-10-02T03:00:16.441Z,98203.03
2022-10-02T03:02:18.725Z,98192.81
2022-10-02T03:04:20.768Z,98206.56
2022-10-02T03:06:38.082Z,98210.09
2022-10-02T03:08:40.541Z,98208.38
2022-10-02T03:11:04.439Z,98211.00
2022-10-02T03:13:33.444Z,98212.72
2022-10-02T03:15:48.305Z,98207.47
2022-10-02T03:18:04.423Z,98205.72
2022-10-02T03:20:43.040Z,98213.53
2022-10-02T03:23:13.005Z,98208.16
2022-10-02T03:25:31.961Z,98203.88
2022-10-02T03:27:39.572Z,98209.13
2022-10-02T03:29:53.243Z,98215.28
2022-10-02T03:31:56.193Z,98215.28
2022-10-02T03:34:00.860Z,98217.88
2022-10-02T03:36:05.088Z,98217.91
2022-10-02T03:38:09.818Z,98222.19
2022-10-02T03:40:12.777Z,98229.19
2022-10-02T03:42:15.955Z,98221.31
2022-10-02T03:44:18.534Z,98216.16
2022-10-02T03:46:20.593Z,98203.09
2022-10-02T03:48:22.895Z,98198.16
2022-10-02T03:50:24.819Z,98211.03
2022-10-02T03:52:26.933Z,98199.97
2022-10-02T03:54:35.821Z,98217.28
2022-10-02T03:56:49.467Z,98225.19
2022-10-02T03:58:54.122Z,98218.38
2022-10-02T04:01:04.898Z,98215.88
2022-10-02T04:03:16.491Z,98226.41
2022-10-02T04:05:27.668Z,98227.38
2022-10-02T04:07:39.237Z,98226.47
2022-10-02T04:10:00.099Z,98230.03
2022-10-02T04:12:10.978Z,98223.16
2022-10-02T04:14:15.961Z,98234.44
2022-10-02T04:16:31.742Z,98235.34
2022-10-02T04:19:04.738Z,98222.25
2022-10-02T04:21:43.201Z,98217.78
2022-10-02T04:23:59.652Z,98218.88
2022-10-02T04:26:08.029Z,98216.13
2022-10-02T04:28:23.563Z,98234.50
2022-10-02T04:30:25.625Z,98232.03
2022-10-02T04:32:31.028Z,98242.31
2022-10-02T04:34:33.740Z,98242.25
2022-10-02T04:36:58.551Z,98239.53
2022-10-02T04:39:37.639Z,98242.25
2022-10-02T04:42:02.079Z,98236.91
2022-10-02T04:44:44.368Z,98239.34
2022-10-02T04:47:14.554Z,98245.47
2022-10-02T04:49:22.679Z,98236.84
2022-10-02T04:51:27.957Z,98234.22
2022-10-02T04:53:35.994Z,98222.03
2022-10-02T04:55:59.280Z,98231.63
2022-10-02T04:58:07.019Z,98218.50
2022-10-02T05:00:20.729Z,98220.38
2022-10-02T05:02:53.389Z,98222.75
2022-10-02T05:05:20.032Z,98208.81
2022-10-02T05:07:44.266Z,98225.91
2022-10-02T05:10:18.844Z,98228.22
2022-10-02T05:12:44.505Z,98231.59
2022-10-02T05:15:07.588Z,98239.25
2022-10-02T05:17:12.976Z,98230.50
2022-10-02T05:19:20.858Z,98220.88
2022-10-02T05:21:41.296Z,98231.03
2022-10-02T05:24:01.443Z,98245.84
2022-10-02T05:26:09.708Z,98237.06
2022-10-02T05:28:59.907Z,98227.56
2022-10-02T05:31:17.006Z,98230.09
2022-10-02T05:33:48.094Z,98226.69
2022-10-02T05:36:16.920Z,98236.97
2022-10-02T05:38:34.000Z,98238.78
2022-10-02T05:41:05.312Z,98242.09
2022-10-02T05:43:15.757Z,98245.50
2022-10-02T05:45:35.344Z,98240.25
2022-10-02T05:47:42.759Z,98232.28
2022-10-02T05:49:54.820Z,98233.94
2022-10-02T05:52:05.383Z,98224.50
2022-10-02T05:54:22.046Z,98234.91
2022-10-02T05:56:39.283Z,98218.47
2022-10-02T05:58:58.712Z,98233.78
2022-10-02T06:01:08.710Z,98231.88
2022-10-02T06:03:26.923Z,98217.06
2022-10-02T06:05:55.591Z,98236.06
2022-10-02T06:08:02.921Z,98224.97
2022-10-02T06:10:15.603Z,98229.25
2022-10-02T06:12:41.578Z,98239.50
2022-10-02T06:15:17.052Z,98233.44
2022-10-02T06:17:23.003Z,98243.25
2022-10-02T06:19:46.666Z,98252.31
2022-10-02T06:21:53.542Z,98234.47
2022-10-02T06:24:01.551Z,98243.09
2022-10-02T06:26:11.780Z,98255.44
2022-10-02T06:28:28.099Z,98258.94
2022-10-02T06:30:35.461Z,98260.69
2022-10-02T06:32:49.663Z,98244.47
2022-10-02T06:34:52.078Z,98251.59
2022-10-02T06:37:09.417Z,98253.25
2022-10-02T06:39:36.339Z,98260.09
2022-10-02T06:41:50.246Z,98273.09
2022-10-02T06:44:17.487Z,98264.31
2022-10-02T06:46:49.429Z,98260.63
2022-10-02T06:49:22.369Z,98250.41
2022-10-02T06:51:50.548Z,98265.22
2022-10-02T06:54:20.695Z,98252.16
2022-10-02T06:56:51.771Z,98259.75
2022-10-02T06:58:59.828Z,98268.34
2022-10-02T07:01:17.000Z,98264.53
2022-10-02T07:03:55.634Z,98255.97
2022-10-02T07:06:12.872Z,98271.22
2022-10-02T07:08:21.416Z,98272.88
2022-10-02T07:10:43.733Z,98271.78
2022-10-02T07:13:00.852Z,98280.53
2022-10-02T07:15:02.957Z,98270.81
2022-10-02T07:17:32.630Z,98266.34
2022-10-02T07:20:09.235Z,98272.41
2022-10-02T07:22:44.980Z,98267.16
2022-10-02T07:25:17.863Z,98261.72
2022-10-02T07:27:27.307Z,98271.13
2022-10-02T07:29:53.043Z,98260.34
2022-10-02T07:32:20.802Z,98272.78
2022-10-02T07:34:44.582Z,98258.19
2022-10-02T07:36:50.298Z,98266.75
2022-10-02T07:39:18.472Z,98270.16
2022-10-02T07:41:42.483Z,98270.53
2022-10-02T07:43:44.547Z,98267.84
2022-10-02T07:46:24.746Z,98263.84
2022-10-02T07:48:51.655Z,98272.06
2022-10-02T07:51:29.724Z,98264.41
2022-10-02T07:53:31.860Z,98267.00
2022-10-02T07:55:41.713Z,98264.19
2022-10-02T07:57:52.546Z,98257.44
2022-10-02T08:00:13.198Z,98255.84
2022-10-02T08:02:58.844Z,98257.25
2022-10-02T08:05:05.607Z,98266.56
2022-10-02T08:07:07.911Z,98270.84
2022-10-02T08:09:19.650Z,98268.22
2022-10-02T08:11:35.315Z,98278.38
2022-10-02T08:13:47.524Z,98275.47
2022-10-02T08:15:55.503Z,98275.47
2022-10-02T08:18:22.910Z,98278.69
2022-10-02T08:20:44.530Z,98285.31
2022-10-02T08:22:53.695Z,98279.19
2022-10-02T08:24:59.172Z,98269.41
2022-10-02T08:27:13.702Z,98273.25
2022-10-02T08:29:41.166Z,98274.88
2022-10-02T08:31:43.860Z,98262.94
2022-10-02T08:33:46.047Z,98275.69
2022-10-02T08:35:48.336Z,98270.47
2022-10-02T08:38:12.951Z,98276.06
2022-10-02T08:40:20.850Z,98273.16
2022-10-02T08:43:08.530Z,98270.25
2022-10-02T08:45:29.231Z,98271.53
2022-10-02T08:47:40.751Z,98260.94
2022-10-02T08:50:15.408Z,98280.69
2022-10-02T08:52:29.896Z,98273.19
2022-10-02T08:54:56.725Z,98269.13
2022-10-02T08:57:17.884Z,98274.81
2022-10-02T08:59:55.004Z,98286.72
2022-10-02T09:02:34.908Z,98286.44
2022-10-02T09:05:07.806Z,98286.31
2022-10-02T09:07:31.025Z,98287.84
2022-10-02T09:09:50.804Z,98283.50
2022-10-02T09:12:22.603Z,98268.38
2022-10-02T09:14:53.533Z,98268.78
2022-10-02T09:17:00.365Z,98273.00
2022-10-02T09:19:33.523Z,98273.66
2022-10-02T09:21:50.614Z,98267.50
2022-10-02T09:24:14.343Z,98266.09
2022-10-02T09:26:30.385Z,98270.19
2022-10-02T09:28:38.062Z,98279.94
2022-10-02T09:31:02.862Z,98281.03
2022-10-02T09:33:07.986Z,98284.66
2022-10-02T09:35:37.967Z,98279.69
2022-10-02T09:38:00.328Z,98286.00
2022-10-02T09:40:39.721Z,98290.28
2022-10-02T09:43:07.078Z,98296.44
2022-10-02T09:45:36.629Z,98290.44
2022-10-02T09:48:10.215Z,98295.84
2022-10-02T09:50:47.197Z,98293.00
2022-10-02T09:53:16.048Z,98293.78
2022-10-02T09:55:43.562Z,98292.44
2022-10-02T09:58:19.574Z,98296.72
2022-10-02T10:00:40.849Z,98285.78
2022-10-02T10:02:46.054Z,98286.22
2022-10-02T10:05:08.949Z,98279.56
2022-10-02T10:07:41.227Z,98269.44
2022-10-02T10:10:08.371Z,98276.19
2022-10-02T10:12:41.850Z,98278.59
2022-10-02T10:15:09.940Z,98288.22
2022-10-02T10:17:26.965Z,98279.84
2022-10-02T10:19:49.776Z,98274.31
2022-10-02T10:21:57.716Z,98285.13
2022-10-02T10:24:36.452Z,98286.53
2022-10-02T10:27:08.117Z,98281.59
2022-10-02T10:29:32.026Z,98275.81
2022-10-02T10:31:36.993Z,98278.78
2022-10-02T10:34:15.814Z,98271.38
2022-10-02T10:37:07.686Z,98265.22
2022-10-02T10:39:30.912Z,98264.13
2022-10-02T10:41:57.632Z,98256.06
2022-10-02T10:44:14.957Z,98250.88
2022-10-02T10:46:26.085Z,98262.69
2022-10-02T10:48:31.139Z,98258.19
2022-10-02T10:50:44.582Z,98262.13
2022-10-02T10:53:00.426Z,98266.84
2022-10-02T10:55:16.857Z,98255.13
2022-10-02T10:57:29.701Z,98246.44
2022-10-02T10:59:49.297Z,98245.59
2022-10-02T11:02:14.053Z,98256.44
2022-10-02T11:04:39.441Z,98252.84
2022-10-02T11:07:16.588Z,98255.56
2022-10-02T11:09:35.819Z,98244.09
2022-10-02T11:12:13.267Z,98238.00
2022-10-02T11:14:51.445Z,98238.38
2022-10-02T11:17:14.959Z,98253.31
2022-10-02T11:19:21.634Z,98248.72
2022-10-02T11:21:41.364Z,98244.28
2022-10-02T11:23:49.385Z,98246.53
2022-10-02T11:26:00.825Z,98248.28
2022-10-02T11:28:40.341Z,98248.00
2022-10-02T11:31:30.075Z,98244.56
2022-10-02T11:33:50.918Z,98242.56
2022-10-02T11:36:27.051Z,98239.50
2022-10-02T11:39:02.986Z,98237.50
2022-10-02T11:41:10.992Z,98227.41
2022-10-02T11:43:34.470Z,98229.66
2022-10-02T11:46:04.942Z,98219.84
2022-10-02T11:48:12.986Z,98228.94
2022-10-02T11:50:18.521Z,98228.66
2022-10-02T11:52:23.172Z,98226.50
2022-10-02T11:54:37.728Z,98224.84
2022-10-02T11:57:21.829Z,98218.19
2022-10-02T11:59:51.813Z,98219.97
2022-10-02T12:02:08.037Z,98214.78
2022-10-02T12:04:26.819Z,98206.78
2022-10-02T12:07:05.260Z,98196.22
2022-10-02T12:09:44.463Z,98206.63
2022-10-02T12:12:15.445Z,98214.72
2022-10-02T12:14:59.551Z,98210.22
2022-10-02T12:17:26.192Z,98208.78
2022-10-02T12:20:09.002Z,98202.31
2022-10-02T12:22:59.999Z,98195.03
2022-10-02T12:26:01.983Z,98186.19
2022-10-02T12:28:21.427Z,98178.19
2022-10-02T12:30:36.236Z,98182.69
2022-10-02T12:33:08.334Z,98174.25
2022-10-02T12:35:44.067Z,98184.16
2022-10-02T12:38:04.626Z,98173.50
2022-10-02T12:40:24.468Z,98181.13
2022-10-02T12:43:07.928Z,98168.88
2022-10-02T12:45:16.577Z,98163.94
2022-10-02T12:47:38.548Z,98160.84
2022-10-02T12:49:50.873Z,98142.59
2022-10-02T12:51:55.719Z,98150.44
2022-10-02T12:54:20.826Z,98140.19
2022-10-02T12:56:37.825Z,98145.38
2022-10-02T12:59:01.857Z,98142.81
2022-10-02T13:01:31.938Z,98147.16
2022-10-02T13:03:34.103Z,98140.91
2022-10-02T13:05:54.092Z,98153.56
2022-10-02T13:08:41.613Z,98151.31
2022-10-02T13:10:57.556Z,98146.59
2022-10-02T13:13:13.947Z,98151.38
2022-10-02T13:15:22.268Z,98153.66
2022-10-02T13:17:33.477Z,98145.88
2022-10-02T13:20:05.557Z,98142.88
2022-10-02T13:22:25.215Z,98147.69
2022-10-02T13:24:41.752Z,98137.94
2022-10-02T13:26:56.851Z,98128.81
2022-10-02T13:29:27.211Z,98138.03
2022-10-02T13:32:00.455Z,98122.72
2022-10-02T13:34:21.016Z,98125.69
2022-10-02T13:36:34.521Z,98120.63
2022-10-02T13:38:55.253Z,98127.84
2022-10-02T13:41:39.797Z,98123.84
2022-10-02T13:44:04.162Z,98113.59
2022-10-02T13:46:15.567Z,98112.16
2022-10-02T13:48:46.050Z,98088.09
2022-10-02T13:51:07.427Z,98092.47
2022-10-02T13:53:39.150Z,98098.72
2022-10-02T13:55:57.701Z,98098.00
2022-10-02T13:58:22.072Z,98057.78
2022-10-02T14:00:42.761Z,98087.97
2022-10-02T14:02:50.977Z,98090.75
2022-10-02T14:05:44.160Z,98088.81
2022-10-02T14:07:58.456Z,98087.56
2022-10-02T14:10:12.747Z,98081.84
2022-10-02T14:12:52.599Z,98087.09
2022-10-02T14:15:43.000Z,98077.66
2022-10-02T14:18:14.058Z,98074.59
2022-10-02T14:20:23.768Z,98078.16
2022-10-02T14:23:10.248Z,98079.03
2022-10-02T14:25:30.730Z,98069.50
2022-10-02T14:27:57.519Z,98069.56
2022-10-02T14:30:07.356Z,98071.25
2022-10-02T14:32:27.359Z,98080.06
2022-10-02T14:34:38.735Z,98068.81
2022-10-02T14:36:44.428Z,98059.34
2022-10-02T14:38:50.051Z,98055.91
2022-10-02T14:40:56.521Z,98056.88
2022-10-02T14:43:04.672Z,98062.28
2022-10-02T14:45:34.751Z,98058.91
2022-10-02T14:48:09.464Z,98061.38
2022-10-02T14:50:26.676Z,98058.88
2022-10-02T14:52:36.883Z,98051.22
2022-10-02T14:55:06.300Z,98054.84
2022-10-02T14:57:19.118Z,98058.31
2022-10-02T14:59:34.772Z,98052.22
2022-10-02T15:01:46.147Z,98054.88
2022-10-02T15:04:16.463Z,98045.25
2022-10-02T15:06:30.399Z,98033.28
2022-10-02T15:08:40.036Z,98036.59
2022-10-02T15:10:44.728Z,98035.69
2022-10-02T15:13:24.513Z,98036.28
2022-10-02T15:16:10.690Z,98038.84
2022-10-02T15:18:31.636Z,98037.03
2022-10-02T15:20:47.731Z,98030.91
2022-10-02T15:23:24.563Z,98037.28
2022-10-02T15:25:44.422Z,98026.25
2022-10-02T15:28:35.645Z,98027.75
2022-10-02T15:30:46.636Z,98030.28
2022-10-02T15:33:07.444Z,98027.75
2022-10-02T15:35:18.544Z,98026.00
2022-10-02T15:37:35.783Z,97994.22
2022-10-02T15:39:37.865Z,98013.91
2022-10-02T15:41:55.823Z,98008.94
2022-10-02T15:44:22.374Z,97999.97
2022-10-02T15:47:05.982Z,97996.56
2022-10-02T15:49:37.164Z,97974.94
2022-10-02T15:51:42.706Z,97989.50
2022-10-02T15:54:03.360Z,97988.72
2022-10-02T15:57:01.740Z,97974.94
2022-10-02T15:59:25.606Z,97975.84
2022-10-02T16:01:49.095Z,97976.88
2022-10-02T16:03:54.458Z,97960.31
2022-10-02T16:06:08.579Z,97962.16
2022-10-02T16:08:22.126Z,97969.00
2022-10-02T16:10:37.651Z,97972.41
2022-10-02T16:13:10.134Z,97940.34
2022-10-02T16:15:25.000Z,97951.41
2022-10-02T16:17:52.350Z,97945.16
2022-10-02T16:20:05.827Z,97944.13
2022-10-02T16:22:49.296Z,97928.44
2022-10-02T16:25:03.836Z,97935.78
2022-10-02T16:27:19.463Z,97932.28
2022-10-02T16:29:39.724Z,97926.50
2022-10-02T16:32:03.529Z,97930.47
2022-10-02T16:34:23.555Z,97932.13
2022-10-02T16:37:03.966Z,97941.75
2022-10-02T16:39:44.703Z,97938.22
2022-10-02T16:42:04.208Z,97946.06
2022-10-02T16:44:08.221Z,97940.59
2022-10-02T16:46:16.645Z,97926.16
2022-10-02T16:48:39.386Z,97918.38
2022-10-02T16:51:05.438Z,97929.31
2022-10-02T16:53:27.998Z,97920.75
2022-10-02T16:56:11.862Z,97919.06
2022-10-02T16:58:38.949Z,97892.28
2022-10-02T17:00:52.728Z,97904.53
2022-10-02T17:03:04.038Z,97906.00
2022-10-02T17:05:28.213Z,97890.25
2022-10-02T17:07:56.123Z,97890.31
2022-10-02T17:10:21.241Z,97889.34
2022-10-02T17:12:47.159Z,97889.28
2022-10-02T17:15:13.904Z,97895.44
2022-10-02T17:17:26.832Z,97872.09
2022-10-02T17:19:45.914Z,97866.56
2022-10-02T17:21:59.967Z,97856.38
2022-10-02T17:24:14.264Z,97851.38
2022-10-02T17:26:33.455Z,97836.88
2022-10-02T17:28:52.396Z,97838.56
2022-10-02T17:31:00.704Z,97834.97
2022-10-02T17:33:15.016Z,97836.72
2022-10-02T17:35:41.850Z,97820.41
2022-10-02T17:38:06.881Z,97833.13
2022-10-02T17:40:54.718Z,97855.06
2022-10-02T17:43:37.389Z,97829.91
2022-10-02T17:45:58.298Z,97833.72
2022-10-02T17:48:33.099Z,97819.41
2022-10-02T17:51:02.960Z,97810.25
2022-10-02T17:53:57.657Z,97806.53
2022-10-02T17:56:32.929Z,97819.09
2022-10-02T17:58:57.274Z,97805.38
2022-10-02T18:01:08.252Z,97790.53
2022-10-02T18:03:39.882Z,97790.53
2022-10-02T18:06:06.228Z,97794.81
2022-10-02T18:08:27.407Z,97796.34
2022-10-02T18:10:41.267Z,97796.34
2022-10-02T18:12:51.940Z,97790.88
2022-10-02T18:15:16.319Z,97781.47
2022-10-02T18:17:24.620Z,97800.53
2022-10-02T18:19:48.602Z,97775.13
2022-10-02T18:21:57.043Z,97762.03
2022-10-02T18:24:02.163Z,97751.50
2022-10-02T18:26:19.804Z,97744.47
2022-10-02T18:28:31.093Z,97730.59
2022-10-02T18:31:55.090Z,97729.63
2022-10-02T18:34:06.970Z,97727.75
2022-10-02T18:36:12.898Z,97720.75
2022-10-02T18:38:31.109Z,97705.91
2022-10-02T18:40:59.212Z,97702.53
2022-10-02T18:43:18.889Z,97709.28
2022-10-02T18:45:32.791Z,97686.66
2022-10-02T18:47:47.180Z,97703.16
2022-10-02T18:50:26.113Z,97688.72
2022-10-02T18:52:32.917Z,97686.31
2022-10-02T18:54:50.608Z,97674.19
2022-10-02T18:57:13.575Z,97662.13
2022-10-02T18:59:50.452Z,97673.22
2022-10-02T19:02:18.222Z,97687.84
2022-10-02T19:05:03.183Z,97687.56
2022-10-02T19:07:19.743Z,97695.25
2022-10-02T19:09:30.105Z,97700.38
2022-10-02T19:11:45.901Z,97685.81
2022-10-02T19:13:51.045Z,97693.59
2022-10-02T19:16:19.608Z,97674.78
2022-10-02T19:18:24.403Z,97670.94
2022-10-02T19:20:44.596Z,97676.63
2022-10-02T19:22:51.294Z,97653.06
2022-10-02T19:25:03.814Z,97636.63
2022-10-02T19:27:18.057Z,97631.47
2022-10-02T19:29:44.098Z,97623.56
2022-10-02T19:31:46.737Z,97622.66
2022-10-02T19:33:53.915Z,97613.03
2022-10-02T19:36:05.828Z,97594.66
2022-10-02T19:38:13.774Z,97601.59
2022-10-02T19:40:24.932Z,97586.25
2022-10-02T19:42:37.682Z,97595.50
2022-10-02T19:44:49.680Z,97612.13
2022-10-02T19:46:55.139Z,97610.44
2022-10-02T19:49:02.831Z,97598.66
2022-10-02T19:51:21.277Z,97611.59
2022-10-02T19:53:26.275Z,97631.44
2022-10-02T19:55:39.535Z,97619.19
2022-10-02T19:57:42.039Z,97634.72
2022-10-02T19:59:54.255Z,97634.72
2022-10-02T20:02:01.100Z,97618.81
2022-10-02T20:04:05.234Z,97619.47
2022-10-02T20:06:16.174Z,97622.97
2022-10-02T20:08:23.208Z,97615.03
2022-10-02T20:10:31.153Z,97610.91
2022-10-02T20:12:40.472Z,97613.94
2022-10-02T20:14:48.972Z,97605.03
2022-10-02T20:17:10.289Z,97603.25
2022-10-02T20:19:23.909Z,97602.03
2022-10-02T20:21:39.227Z,97600.06
2022-10-02T20:23:45.812Z,97591.09
2022-10-02T20:25:58.486Z,97587.22
2022-10-02T20:28:12.446Z,97572.28
2022-10-02T20:30:20.354Z,97573.84
2022-10-02T20:32:30.301Z,97557.41
2022-10-02T20:35:24.760Z,97550.16
2022-10-02T20:37:31.634Z,97540.72
2022-10-02T20:39:39.242Z,97559.56
2022-10-02T20:42:03.207Z,97534.78
2022-10-02T20:44:06.610Z,97523.56
2022-10-02T20:46:27.354Z,97512.81
2022-10-02T20:49:07.899Z,97501.28
2022-10-02T20:51:48.204Z,97505.47
2022-10-02T20:54:25.986Z,97490.34
2022-10-02T20:57:06.047Z,97476.63
2022-10-02T20:59:17.178Z,97476.25
2022-10-02T21:01:21.128Z,97470.25
2022-10-02T21:03:50.273Z,97469.09
2022-10-02T21:06:29.723Z,97474.16
2022-10-02T21:08:48.260Z,97472.44
2022-10-02T21:10:53.110Z,97473.84
2022-10-02T21:13:14.660Z,97479.22
2022-10-02T21:15:48.089Z,97479.94
2022-10-02T21:18:06.756Z,97480.63
2022-10-02T21:20:53.571Z,97491.22
2022-10-02T21:23:15.954Z,97455.97
2022-10-02T21:25:36.489Z,97474.63
2022-10-02T21:28:17.244Z,97483.19
2022-10-02T21:30:20.747Z,97462.16
2022-10-02T21:32:47.325Z,97441.22
2022-10-02T21:34:49.478Z,97457.25
2022-10-02T21:37:28.721Z,97459.47
2022-10-02T21:40:25.959Z,97467.16
2022-10-02T21:42:28.253Z,97475.72
2022-10-02T21:44:53.799Z,97466.69
2022-10-02T21:47:34.695Z,97462.94
2022-10-02T21:49:58.270Z,97460.19
2022-10-02T21:52:26.149Z,97440.06
2022-10-02T21:54:56.214Z,97446.47
2022-10-02T21:57:30.680Z,97432.16
2022-10-02T21:59:51.807Z,97428.38
2022-10-02T22:02:32.662Z,97427.13
2022-10-02T22:04:45.224Z,97417.38
2022-10-02T22:06:50.104Z,97418.09
2022-10-02T22:09:10.515Z,97417.75
2022-10-02T22:11:37.222Z,97414.81
2022-10-02T22:16:19.157Z,97408.22
2022-10-02T22:18:46.579Z,97409.84
2022-10-02T22:21:09.916Z,97400.81
2022-10-02T22:23:33.063Z,97405.13
2022-10-02T22:25:57.664Z,97404.94
2022-10-02T22:28:24.533Z,97398.63
2022-10-02T22:30:48.099Z,97401.31
2022-10-02T22:33:20.296Z,97394.13
2022-10-02T22:36:07.501Z,97394.81
2022-10-02T22:38:19.161Z,97394.81
2022-10-02T22:40:29.707Z,97378.03
2022-10-02T22:42:45.258Z,97390.25
2022-10-02T22:44:59.881Z,97383.28
2022-10-02T22:47:22.623Z,97376.78
2022-10-02T22:49:43.274Z,97372.97
2022-10-02T22:51:46.028Z,97369.38
2022-10-02T22:53:54.202Z,97363.31
2022-10-02T22:55:57.877Z,97349.28
2022-10-02T22:58:18.605Z,97365.75
2022-10-02T23:00:27.687Z,97351.59
2022-10-02T23:02:37.374Z,97358.88
2022-10-02T23:04:49.727Z,97350.72
2022-10-02T23:07:30.378Z,97341.47
2022-10-02T23:09:38.229Z,97336.72
2022-10-02T23:11:46.362Z,97338.94
2022-10-02T23:14:06.110Z,97318.34
2022-10-02T23:16:12.747Z,97318.88
2022-10-02T23:18:23.628Z,97323.84
2022-10-02T23:20:35.899Z,97301.03
2022-10-02T23:22:55.025Z,97296.25
2022-10-02T23:25:19.231Z,97302.84
2022-10-02T23:27:29.998Z,97290.28
2022-10-02T23:29:54.478Z,97295.00
2022-10-02T23:31:59.473Z,97294.81
2022-10-02T23:34:33.248Z,97279.69
2022-10-02T23:37:05.845Z,97270.84
2022-10-02T23:39:20.097Z,97270.59
2022-10-02T23:41:47.037Z,97252.72
2022-10-02T23:44:39.233Z,97281.31
2022-10-02T23:46:50.173Z,97243.31
2022-10-02T23:48:53.798Z,97246.88
2022-10-02T23:51:28.364Z,97237.56
2022-10-02T23:56:36.363Z,97232.88
2022-10-02T23:58:44.308Z,97224.88
